Time;durP1;ratioP1;P1;durP2;ratioP2;P2;SDS_P1;SDS_P2;PMS_P1;PMS_P2;Temp;Humidity;BMP_temperature;BMP_pressure;BME280_temperature;BME280_humidity;BME280_pressure;Samples;Min_cycle;Max_cycle;Signal;HPM_P1;HPM_P2
2022/07/22 00:00:14;;;;;;;1.60;1.50;;;20.70;57.20;;;;;;4815374;29;20069;-75
2022/07/22 00:02:40;;;;;;;3.53;2.15;;;20.70;57.30;;;;;;4814909;29;20034;-75
2022/07/22 00:05:07;;;;;;;7.07;2.25;;;20.70;57.40;;;;;;4816557;29;20042;-75
2022/07/22 00:07:33;;;;;;;2.88;1.83;;;20.70;57.50;;;;;;4818808;29;20038;-75
2022/07/22 00:09:59;;;;;;;4.13;1.63;;;20.60;57.30;;;;;;4817134;29;20038;-74
2022/07/22 00:12:26;;;;;;;2.40;2.20;;;20.60;57.40;;;;;;4817796;29;20061;-74
2022/07/22 00:14:51;;;;;;;2.33;1.70;;;20.60;57.50;;;;;;4799204;29;20517;-74
2022/07/22 00:17:17;;;;;;;2.88;2.22;;;20.60;57.50;;;;;;4815650;29;20126;-76
2022/07/22 00:19:43;;;;;;;6.70;2.35;;;20.60;57.60;;;;;;4803057;29;20030;-74
2022/07/22 00:22:09;;;;;;;2.80;2.30;;;20.60;57.60;;;;;;4816806;29;20033;-75
2022/07/22 00:24:35;;;;;;;3.08;2.20;;;20.60;57.70;;;;;;4814785;29;20425;-74
2022/07/22 00:27:01;;;;;;;2.65;1.85;;;20.60;57.70;;;;;;4818758;29;20039;-74
2022/07/22 00:29:27;;;;;;;4.20;2.65;;;20.60;57.80;;;;;;4814924;29;20036;-74
2022/07/22 00:31:53;;;;;;;3.40;3.00;;;20.60;57.80;;;;;;4815221;29;20538;-74
2022/07/22 00:34:19;;;;;;;4.47;2.22;;;20.60;57.80;;;;;;4814982;29;20034;-76
2022/07/22 00:36:45;;;;;;;5.78;2.30;;;20.60;57.90;;;;;;4814417;29;20046;-74
2022/07/22 00:39:11;;;;;;;2.90;2.50;;;20.60;58.00;;;;;;4814228;29;20115;-74
2022/07/22 00:41:37;;;;;;;2.83;2.30;;;20.60;58.00;;;;;;4815370;29;20031;-74
2022/07/22 00:44:06;;;;;;;2.92;2.40;;;20.60;58.10;;;;;;4798295;29;20383;-73
2022/07/22 00:46:33;;;;;;;2.90;2.30;;;20.60;58.10;;;;;;4814608;29;20022;-74
2022/07/22 00:49:00;;;;;;;4.20;2.50;;;20.50;58.00;;;;;;4799144;29;20058;-74
2022/07/22 00:51:28;;;;;;;3.33;2.60;;;20.50;58.10;;;;;;4799600;29;20038;-74
2022/07/22 00:53:54;;;;;;;2.97;2.10;;;20.60;58.30;;;;;;4797825;29;20060;-74
2022/07/22 00:56:21;;;;;;;4.65;2.78;;;20.50;58.10;;;;;;4818073;29;20053;-74
2022/07/22 00:58:49;;;;;;;2.88;2.35;;;20.50;58.20;;;;;;4797606;29;20026;-74
2022/07/22 01:01:16;;;;;;;3.67;2.42;;;20.50;58.30;;;;;;4812621;29;20049;-74
2022/07/22 01:03:42;;;;;;;3.15;2.58;;;20.50;58.30;;;;;;4795860;29;20042;-75
2022/07/22 01:06:08;;;;;;;2.97;2.63;;;20.50;58.40;;;;;;4798296;29;20045;-74
2022/07/22 01:08:35;;;;;;;4.43;2.22;;;20.50;58.50;;;;;;4814041;29;20124;-74
2022/07/22 01:11:08;;;;;;;2.88;2.35;;;20.50;58.50;;;;;;4813687;29;20038;-74
2022/07/22 01:13:36;;;;;;;6.03;3.08;;;20.40;58.50;;;;;;4813892;29;20082;-73
2022/07/22 01:16:07;;;;;;;3.70;2.40;;;20.40;58.40;;;;;;4814445;29;20050;-74
2022/07/22 01:18:33;;;;;;;3.00;2.42;;;20.40;58.50;;;;;;4797718;29;20034;-74
2022/07/22 01:21:00;;;;;;;5.30;2.80;;;20.40;58.60;;;;;;4813861;29;20153;-74
2022/07/22 01:23:26;;;;;;;3.45;2.40;;;20.40;58.70;;;;;;4798237;29;20034;-74
2022/07/22 01:25:52;;;;;;;2.58;2.38;;;20.40;58.70;;;;;;4813843;29;20038;-74
2022/07/22 01:28:21;;;;;;;2.92;2.55;;;20.40;58.80;;;;;;4813946;29;20094;-74
2022/07/22 01:30:46;;;;;;;3.50;2.35;;;20.40;58.90;;;;;;4815017;29;20034;-75
2022/07/22 01:33:12;;;;;;;3.00;2.60;;;20.40;58.90;;;;;;4798210;29;20115;-75
2022/07/22 01:35:38;;;;;;;3.60;2.22;;;20.40;59.00;;;;;;4815959;29;20046;-74
2022/07/22 01:38:06;;;;;;;2.85;2.30;;;20.40;59.00;;;;;;4815049;29;20053;-75
2022/07/22 01:40:32;;;;;;;2.42;2.20;;;20.30;58.90;;;;;;4811713;29;20038;-74
2022/07/22 01:42:58;;;;;;;3.10;2.55;;;20.30;58.90;;;;;;4797272;29;20207;-74
2022/07/22 01:45:24;;;;;;;2.25;1.80;;;20.30;59.00;;;;;;4796336;29;20055;-74
2022/07/22 01:47:50;;;;;;;3.63;2.28;;;20.30;59.10;;;;;;4813811;29;20393;-74
2022/07/22 01:50:16;;;;;;;3.10;2.40;;;20.30;59.20;;;;;;4797662;29;20060;-74
2022/07/22 01:52:42;;;;;;;3.83;2.50;;;20.30;59.10;;;;;;4815069;29;20451;-74
2022/07/22 01:55:09;;;;;;;2.78;2.58;;;20.30;59.20;;;;;;4812580;29;20047;-75
2022/07/22 01:57:36;;;;;;;3.35;2.53;;;20.30;59.30;;;;;;4815142;29;20037;-74
2022/07/22 02:00:12;;;;;;;3.60;2.55;;;20.30;59.40;;;;;;4797926;29;20045;-73
2022/07/22 02:02:42;;;;;;;4.80;2.33;;;20.30;59.40;;;;;;4814927;29;20177;-74
2022/07/22 02:05:09;;;;;;;3.63;2.80;;;20.30;59.40;;;;;;4799980;29;20433;-73
2022/07/22 02:07:36;;;;;;;3.83;2.40;;;20.30;59.50;;;;;;4816940;29;20126;-76
2022/07/22 02:10:04;;;;;;;3.05;2.47;;;20.30;59.50;;;;;;4800174;29;20034;-74
2022/07/22 02:12:32;;;;;;;3.17;2.50;;;20.30;59.60;;;;;;4799075;29;20041;-74
2022/07/22 02:14:58;;;;;;;5.20;2.92;;;20.20;59.40;;;;;;4816394;29;20026;-74
2022/07/22 02:17:25;;;;;;;4.35;3.25;;;20.30;59.60;;;;;;4800585;29;20037;-73
2022/07/22 02:19:51;;;;;;;3.78;2.78;;;20.20;59.50;;;;;;4817124;29;20125;-73
2022/07/22 02:22:18;;;;;;;3.25;2.75;;;20.30;59.70;;;;;;4813846;29;20061;-76
2022/07/22 02:24:46;;;;;;;4.75;3.08;;;20.30;59.80;;;;;;4798486;29;20031;-75
2022/07/22 02:27:13;;;;;;;3.85;2.85;;;20.30;59.80;;;;;;4813206;29;20109;-74
2022/07/22 02:29:40;;;;;;;5.05;2.63;;;20.30;59.90;;;;;;4798494;29;20034;-74
2022/07/22 02:32:06;;;;;;;4.10;3.13;;;20.30;59.80;;;;;;4797267;29;20546;-76
2022/07/22 02:34:32;;;;;;;3.47;2.85;;;20.40;60.00;;;;;;4816092;29;20034;-75
2022/07/22 02:36:59;;;;;;;3.33;2.65;;;20.40;60.10;;;;;;4799734;29;20544;-76
2022/07/22 02:39:25;;;;;;;3.72;2.78;;;20.40;60.10;;;;;;4797327;29;20642;-75
2022/07/22 02:41:51;;;;;;;4.15;2.88;;;20.40;60.10;;;;;;4814466;29;20034;-76
2022/07/22 02:44:18;;;;;;;4.65;2.80;;;20.40;60.10;;;;;;4814508;29;20102;-76
2022/07/22 02:46:44;;;;;;;3.25;2.80;;;20.40;60.10;;;;;;4798327;29;20136;-76
2022/07/22 02:49:15;;;;;;;3.95;2.83;;;20.50;60.30;;;;;;4798910;29;20026;-75
2022/07/22 02:51:41;;;;;;;5.18;2.75;;;20.50;60.40;;;;;;4814726;29;20049;-75
2022/07/22 02:54:07;;;;;;;2.78;2.58;;;20.50;60.40;;;;;;4815185;29;20058;-75
2022/07/22 02:56:33;;;;;;;2.95;2.60;;;20.50;60.40;;;;;;4802792;29;20039;-76
2022/07/22 02:58:59;;;;;;;3.50;3.15;;;20.50;60.40;;;;;;4803721;29;20042;-75
2022/07/22 03:01:25;;;;;;;6.00;3.22;;;20.50;60.40;;;;;;4787061;29;20026;-75
2022/07/22 03:03:55;;;;;;;2.90;2.70;;;20.50;60.50;;;;;;4798689;29;20042;-76
2022/07/22 03:06:22;;;;;;;5.05;3.15;;;20.50;60.50;;;;;;4817124;29;20073;-76
2022/07/22 03:08:57;;;;;;;4.03;3.08;;;20.50;60.50;;;;;;4800779;29;20062;-76
2022/07/22 03:11:24;;;;;;;3.42;2.92;;;20.50;60.50;;;;;;4799681;29;20066;-75
2022/07/22 03:13:50;;;;;;;4.15;3.25;;;20.50;60.60;;;;;;4795958;29;20031;-76
2022/07/22 03:16:16;;;;;;;3.95;2.80;;;20.50;60.70;;;;;;4811741;29;20133;-76
2022/07/22 03:18:42;;;;;;;4.63;3.53;;;20.50;60.70;;;;;;4796538;29;20557;-76
2022/07/22 03:21:08;;;;;;;4.57;2.97;;;20.50;60.80;;;;;;4797357;29;20035;-76
2022/07/22 03:23:34;;;;;;;6.22;3.75;;;20.50;60.80;;;;;;4799315;29;20022;-76
2022/07/22 03:26:00;;;;;;;5.07;3.00;;;20.40;60.70;;;;;;4781957;29;20471;-76
2022/07/22 03:28:27;;;;;;;4.55;2.60;;;20.40;60.70;;;;;;4797129;29;20022;-76
2022/07/22 03:30:53;;;;;;;6.03;2.70;;;20.40;60.80;;;;;;4818166;29;20098;-76
2022/07/22 03:33:19;;;;;;;3.33;2.63;;;20.50;61.00;;;;;;4801676;29;20026;-76
2022/07/22 03:35:45;;;;;;;4.82;2.80;;;20.40;60.90;;;;;;4801609;29;20129;-77
2022/07/22 03:38:11;;;;;;;4.78;3.20;;;20.40;60.90;;;;;;4799565;29;20038;-76
2022/07/22 03:40:38;;;;;;;3.55;2.97;;;20.40;61.00;;;;;;4798888;29;20753;-75
2022/07/22 03:43:04;;;;;;;3.25;2.70;;;20.40;61.10;;;;;;4797291;29;20129;-76
2022/07/22 03:45:31;;;;;;;4.50;3.00;;;20.30;61.00;;;;;;4796954;29;20035;-76
2022/07/22 03:47:58;;;;;;;4.05;3.05;;;20.30;61.00;;;;;;4799325;29;20042;-76
2022/07/22 03:50:27;;;;;;;5.93;2.95;;;20.30;61.10;;;;;;4786754;29;20103;-76
2022/07/22 03:52:54;;;;;;;5.00;3.00;;;20.30;61.10;;;;;;4799655;29;20026;-76
2022/07/22 03:55:20;;;;;;;6.00;3.08;;;20.20;61.10;;;;;;4817128;29;20520;-76
2022/07/22 03:57:50;;;;;;;5.35;2.97;;;20.20;61.20;;;;;;4815144;29;20034;-76
2022/07/22 04:00:24;;;;;;;5.38;3.28;;;20.20;61.20;;;;;;4797965;29;20512;-76
2022/07/22 04:02:50;;;;;;;3.20;2.72;;;20.20;61.30;;;;;;4814193;29;20105;-76
2022/07/22 04:05:29;;;;;;;8.23;3.03;;;20.10;61.20;;;;;;4800045;29;20159;-76
2022/07/22 04:07:55;;;;;;;4.57;3.45;;;20.10;61.20;;;;;;4801862;29;20301;-75
2022/07/22 04:10:21;;;;;;;5.95;3.00;;;20.10;61.30;;;;;;4815456;29;20045;-76
2022/07/22 04:12:47;;;;;;;4.53;3.28;;;20.00;61.20;;;;;;4799423;29;20475;-76
2022/07/22 04:15:24;;;;;;;5.53;3.10;;;20.00;61.30;;;;;;4799628;29;20043;-76
2022/07/22 04:17:50;;;;;;;10.00;3.53;;;20.00;61.30;;;;;;4814067;29;20026;-75
2022/07/22 04:20:17;;;;;;;4.38;3.00;;;20.00;61.40;;;;;;4799827;29;20022;-75
2022/07/22 04:23:06;;;;;;;4.72;3.25;;;20.00;61.50;;;;;;4815764;29;20049;-75
2022/07/22 04:25:32;;;;;;;5.18;3.20;;;19.90;61.30;;;;;;4816593;29;20049;-75
2022/07/22 04:27:57;;;;;;;4.43;2.97;;;20.00;61.60;;;;;;4814230;29;20158;-76
2022/07/22 04:30:24;;;;;;;8.43;3.85;;;19.90;61.60;;;;;;4815023;29;20091;-75
2022/07/22 04:32:51;;;;;;;5.68;3.35;;;19.90;61.50;;;;;;4813374;29;20027;-76
2022/07/22 04:35:17;;;;;;;4.63;2.85;;;19.90;61.60;;;;;;4785088;29;20054;-76
2022/07/22 04:37:53;;;;;;;4.18;2.83;;;19.90;61.60;;;;;;4799583;29;20062;-75
2022/07/22 04:40:19;;;;;;;4.90;3.28;;;19.90;61.60;;;;;;4798589;29;20571;-75
2022/07/22 04:42:45;;;;;;;3.50;2.58;;;19.90;61.70;;;;;;4815510;29;20525;-75
2022/07/22 04:45:11;;;;;;;6.95;2.88;;;20.00;61.80;;;;;;4799823;29;20025;-75
2022/07/22 04:47:37;;;;;;;8.25;3.90;;;20.00;61.80;;;;;;4810291;29;20425;-75
2022/07/22 04:50:04;;;;;;;8.13;4.57;;;20.00;61.80;;;;;;4812436;29;20165;-75
2022/07/22 04:52:30;;;;;;;5.93;3.50;;;20.00;61.80;;;;;;4798271;29;20053;-76
2022/07/22 04:54:58;;;;;;;4.63;2.78;;;20.00;61.80;;;;;;4814767;29;20039;-75
2022/07/22 04:57:25;;;;;;;5.45;2.70;;;20.00;61.80;;;;;;4814466;29;20030;-75
2022/07/22 04:59:53;;;;;;;5.90;3.35;;;20.10;61.90;;;;;;4798033;29;20065;-75
2022/07/22 05:02:19;;;;;;;5.25;2.92;;;20.10;61.90;;;;;;4816797;29;20115;-76
2022/07/22 05:04:45;;;;;;;4.55;3.13;;;20.10;61.90;;;;;;4818708;29;20037;-76
2022/07/22 05:07:11;;;;;;;4.80;2.78;;;20.10;61.90;;;;;;4819041;29;20263;-76
2022/07/22 05:09:37;;;;;;;9.48;3.83;;;20.10;61.90;;;;;;4815517;29;20109;-76
2022/07/22 05:12:04;;;;;;;6.53;3.50;;;20.10;61.90;;;;;;4813610;29;20078;-75
2022/07/22 05:14:32;;;;;;;5.70;3.00;;;20.10;61.90;;;;;;4815520;29;20121;-75
2022/07/22 05:16:58;;;;;;;6.00;2.88;;;20.10;61.80;;;;;;4799580;29;20126;-76
2022/07/22 05:19:24;;;;;;;4.70;2.80;;;20.10;61.80;;;;;;4813338;29;20095;-76
2022/07/22 05:21:50;;;;;;;4.60;2.80;;;20.10;61.80;;;;;;4795279;29;20032;-76
2022/07/22 05:24:16;;;;;;;5.70;2.55;;;20.10;61.80;;;;;;4799708;29;20457;-76
2022/07/22 05:26:43;;;;;;;6.90;2.88;;;20.10;61.90;;;;;;4781632;29;20497;-76
2022/07/22 05:29:09;;;;;;;5.57;2.70;;;20.10;61.90;;;;;;4802881;29;20040;-74
2022/07/22 05:31:35;;;;;;;4.80;2.83;;;20.20;62.10;;;;;;4817147;29;20342;-75
2022/07/22 05:34:03;;;;;;;5.00;2.40;;;20.20;62.10;;;;;;4801156;29;20026;-74
2022/07/22 05:36:32;;;;;;;3.40;2.40;;;20.20;62.10;;;;;;4820296;29;20091;-73
2022/07/22 05:38:58;;;;;;;5.65;3.28;;;20.20;62.10;;;;;;4802154;29;20029;-77
2022/07/22 05:41:24;;;;;;;4.63;3.13;;;20.20;62.10;;;;;;4803913;29;20042;-76
2022/07/22 05:43:51;;;;;;;6.55;2.83;;;20.20;62.10;;;;;;4787414;29;20065;-77
2022/07/22 05:46:18;;;;;;;6.25;2.70;;;20.30;62.40;;;;;;4796335;29;20042;-77
2022/07/22 05:48:44;;;;;;;5.82;2.72;;;20.30;62.40;;;;;;4796525;29;20629;-77
2022/07/22 05:51:12;;;;;;;4.72;2.60;;;20.30;62.40;;;;;;4797756;29;20172;-77
2022/07/22 05:53:39;;;;;;;2.65;2.30;;;20.30;62.50;;;;;;4796720;29;20513;-77
2022/07/22 05:56:05;;;;;;;3.85;2.95;;;20.40;62.70;;;;;;4812770;29;20050;-78
2022/07/22 05:58:32;;;;;;;8.90;3.40;;;20.40;62.60;;;;;;4796829;29;20027;-77
2022/07/22 06:00:58;;;;;;;7.38;2.78;;;20.50;62.70;;;;;;4795871;29;20129;-78
2022/07/22 06:03:24;;;;;;;6.75;3.50;;;20.50;62.60;;;;;;4812035;29;20040;-77
2022/07/22 06:05:50;;;;;;;6.10;3.17;;;20.60;62.70;;;;;;4796795;29;20396;-76
2022/07/22 06:08:17;;;;;;;3.80;3.05;;;20.60;62.50;;;;;;4798459;29;20065;-76
2022/07/22 06:10:51;;;;;;;3.78;2.75;;;20.70;62.70;;;;;;4788765;29;20038;-75
2022/07/22 06:13:17;;;;;;;3.80;2.67;;;20.80;62.70;;;;;;4816796;29;20053;-75
2022/07/22 06:15:44;;;;;;;5.40;2.72;;;20.80;62.70;;;;;;4788121;29;20058;-75
2022/07/22 06:18:12;;;;;;;6.72;2.60;;;20.80;62.70;;;;;;4801762;29;20034;-75
2022/07/22 06:20:38;;;;;;;4.25;2.60;;;20.80;62.60;;;;;;4802901;29;20026;-75
2022/07/22 06:23:04;;;;;;;3.78;2.80;;;20.80;62.60;;;;;;4815638;29;20034;-77
2022/07/22 06:25:31;;;;;;;5.07;3.22;;;20.80;62.60;;;;;;4803508;29;20046;-76
2022/07/22 06:27:57;;;;;;;4.45;2.40;;;20.80;62.60;;;;;;4797071;29;20485;-76
2022/07/22 06:30:23;;;;;;;5.25;2.42;;;20.80;62.60;;;;;;4797576;29;20075;-76
2022/07/22 06:32:49;;;;;;;5.35;2.67;;;20.80;62.70;;;;;;4796813;29;20031;-77
2022/07/22 06:35:15;;;;;;;4.65;2.42;;;20.80;63.30;;;;;;4795647;29;20046;-76
2022/07/22 06:37:41;;;;;;;5.97;3.67;;;20.80;62.80;;;;;;4794246;29;20050;-76
2022/07/22 06:40:07;;;;;;;4.50;2.47;;;20.80;62.70;;;;;;4796667;29;20122;-77
2022/07/22 06:42:48;;;;;;;6.15;3.08;;;20.90;62.90;;;;;;4812242;29;20497;-76
2022/07/22 06:45:34;;;;;;;4.15;2.72;;;20.90;62.80;;;;;;4796373;29;20564;-76
2022/07/22 06:48:11;;;;;;;5.72;2.67;;;20.90;62.70;;;;;;4795046;29;20023;-76
2022/07/22 06:50:38;;;;;;;3.42;2.50;;;20.90;62.60;;;;;;4808881;29;20054;-76
2022/07/22 06:53:09;;;;;;;4.38;2.85;;;21.00;62.80;;;;;;4809603;29;20617;-78
2022/07/22 06:55:37;;;;;;;4.07;2.97;;;21.00;62.70;;;;;;4792214;29;20050;-76
2022/07/22 06:58:07;;;;;;;6.10;3.08;;;21.00;62.70;;;;;;4809798;29;20034;-76
2022/07/22 07:00:33;;;;;;;3.40;2.50;;;21.00;62.70;;;;;;4811968;29;20039;-75
2022/07/22 07:03:18;;;;;;;6.90;3.33;;;21.10;62.80;;;;;;4795308;29;20023;-75
2022/07/22 07:05:45;;;;;;;4.85;2.90;;;21.10;62.70;;;;;;4812225;29;20034;-76
2022/07/22 07:08:11;;;;;;;5.75;2.50;;;21.20;62.90;;;;;;4797106;29;20026;-76
2022/07/22 07:10:37;;;;;;;4.95;3.00;;;21.20;62.80;;;;;;4799583;29;20062;-76
2022/07/22 07:13:09;;;;;;;4.32;2.67;;;21.30;62.90;;;;;;4796469;29;20170;-76
2022/07/22 07:15:43;;;;;;;4.90;3.00;;;21.40;62.90;;;;;;4804287;29;20562;-76
2022/07/22 07:18:09;;;;;;;5.07;2.67;;;21.40;62.80;;;;;;4810380;29;20302;-76
2022/07/22 07:20:36;;;;;;;4.55;2.50;;;21.50;62.80;;;;;;4796696;29;20034;-76
2022/07/22 07:23:04;;;;;;;5.78;3.38;;;21.60;62.90;;;;;;4815646;29;20042;-76
2022/07/22 07:25:34;;;;;;;8.43;2.88;;;21.60;62.70;;;;;;4785848;29;20111;-76
2022/07/22 07:28:00;;;;;;;6.40;2.72;;;21.70;62.80;;;;;;4800231;29;20050;-76
2022/07/22 07:30:45;;;;;;;5.60;2.72;;;21.80;62.80;;;;;;4816658;29;20115;-76
2022/07/22 07:33:11;;;;;;;5.57;2.20;;;21.80;62.60;;;;;;4798615;29;20030;-76
2022/07/22 07:35:38;;;;;;;7.03;3.15;;;21.90;62.70;;;;;;4816203;29;20038;-77
2022/07/22 07:38:04;;;;;;;5.88;2.65;;;21.90;62.60;;;;;;4814177;29;20704;-76
2022/07/22 07:40:32;;;;;;;6.05;3.22;;;22.00;62.60;;;;;;4814967;29;20117;-75
2022/07/22 07:42:58;;;;;;;6.22;2.65;;;22.10;62.50;;;;;;4798900;29;20042;-76
2022/07/22 07:45:24;;;;;;;8.18;2.72;;;22.20;62.50;;;;;;4804204;29;20038;-76
2022/07/22 07:47:50;;;;;;;3.72;1.90;;;22.40;62.60;;;;;;4817931;29;20626;-76
2022/07/22 07:50:16;;;;;;;4.38;1.70;;;22.40;62.40;;;;;;4801464;29;20874;-76
2022/07/22 07:52:47;;;;;;;5.20;2.50;;;22.50;62.40;;;;;;4803944;29;20031;-76
2022/07/22 07:55:14;;;;;;;5.90;2.78;;;22.60;62.40;;;;;;4802759;29;20030;-76
2022/07/22 07:57:43;;;;;;;6.38;2.17;;;22.70;62.30;;;;;;4815339;29;20023;-76
2022/07/22 08:00:13;;;;;;;5.35;2.08;;;22.80;62.20;;;;;;4801359;29;20700;-76
2022/07/22 08:02:45;;;;;;;;;;;23.00;62.30;;;;;;4799439;29;20523;-76
2022/07/22 08:05:12;;;;;;;6.45;2.15;;;23.20;62.10;;;;;;4815326;29;19999;-76
2022/07/22 08:07:39;;;;;;;6.40;2.17;;;23.50;62.10;;;;;;4800731;29;20117;-76
2022/07/22 08:10:06;;;;;;;4.28;2.45;;;23.70;61.90;;;;;;4815495;29;20034;-76
2022/07/22 08:12:51;;;;;;;3.92;2.05;;;23.90;61.80;;;;;;4816009;29;20045;-76
2022/07/22 08:15:28;;;;;;;6.13;2.75;;;24.10;61.60;;;;;;4802900;29;20473;-76
2022/07/22 08:17:54;;;;;;;5.63;1.85;;;24.30;62.10;;;;;;4817075;29;20145;-76
2022/07/22 08:20:23;;;;;;;5.45;2.30;;;24.50;61.60;;;;;;4800090;29;20034;-75
2022/07/22 08:22:50;;;;;;;4.38;1.80;;;24.50;61.20;;;;;;4797697;29;20083;-76
2022/07/22 08:25:16;;;;;;;5.55;2.08;;;24.60;61.20;;;;;;4797882;29;20034;-75
2022/07/22 08:27:42;;;;;;;3.65;1.50;;;24.70;61.10;;;;;;4813638;29;20026;-76
2022/07/22 08:30:11;;;;;;;5.57;2.22;;;24.80;61.10;;;;;;4798631;29;20501;-76
2022/07/22 08:32:38;;;;;;;4.55;1.98;;;24.90;61.10;;;;;;4795800;29;20049;-76
2022/07/22 08:35:05;;;;;;;5.30;2.00;;;25.00;61.10;;;;;;4798137;29;20094;-78
2022/07/22 08:37:31;;;;;;;4.35;2.13;;;25.20;60.80;;;;;;4814777;29;20158;-77
2022/07/22 08:39:58;;;;;;;5.95;1.80;;;25.40;60.40;;;;;;4797900;29;20109;-79
2022/07/22 08:42:25;;;;;;;5.38;2.20;;;25.60;60.20;;;;;;4813649;29;20133;-76
2022/07/22 08:44:53;;;;;;;4.03;1.70;;;25.70;59.90;;;;;;4815204;29;20502;-77
2022/07/22 08:47:23;;;;;;;5.10;2.28;;;25.80;59.60;;;;;;4796504;29;20038;-77
2022/07/22 08:50:25;;;;;;;7.53;3.53;;;25.90;59.40;;;;;;4774337;29;20563;-76
2022/07/22 08:53:04;;;;;;;6.20;2.35;;;26.00;59.30;;;;;;4792524;29;20050;-78
2022/07/22 08:55:31;;;;;;;6.90;2.10;;;26.00;59.10;;;;;;4812862;29;20046;-77
2022/07/22 08:57:57;;;;;;;6.32;1.95;;;26.00;58.90;;;;;;4797155;29;20039;-77
2022/07/22 09:00:23;;;;;;;7.85;2.95;;;26.00;58.80;;;;;;4814270;29;20031;-77
2022/07/22 09:02:50;;;;;;;4.63;2.17;;;26.00;58.80;;;;;;4797249;29;20034;-77
2022/07/22 09:05:17;;;;;;;6.68;2.05;;;26.00;58.70;;;;;;4814635;29;20033;-77
2022/07/22 09:07:45;;;;;;;4.72;1.83;;;26.00;58.60;;;;;;4799102;29;20319;-78
2022/07/22 09:10:33;;;;;;;6.15;2.58;;;26.00;58.60;;;;;;4813627;29;20069;-77
2022/07/22 09:13:33;;;;;;;4.53;1.83;;;26.10;58.50;;;;;;4813521;29;20558;-77
2022/07/22 09:16:45;;;;;;;5.03;2.47;;;26.30;58.20;;;;;;4780852;29;20054;-77
2022/07/22 09:19:34;;;;;;;5.50;2.20;;;26.70;57.70;;;;;;4813807;29;20289;-76
2022/07/22 09:22:34;;;;;;;3.42;2.15;;;27.10;57.20;;;;;;4806067;29;20119;-76
2022/07/22 09:25:32;;;;;;;5.05;1.83;;;27.50;56.50;;;;;;4813604;29;20098;-78
2022/07/22 09:28:20;;;;;;;3.70;1.80;;;27.80;56.60;;;;;;4800719;29;20030;-77
2022/07/22 09:31:04;;;;;;;5.22;1.85;;;27.90;55.70;;;;;;4813573;29;20050;-78
2022/07/22 09:33:34;;;;;;;5.80;2.40;;;28.00;55.60;;;;;;4800417;29;20565;-78
2022/07/22 09:36:17;;;;;;;3.03;2.00;;;28.00;55.30;;;;;;4812827;29;20061;-76
2022/07/22 09:38:43;;;;;;;4.50;2.55;;;28.10;55.20;;;;;;4797932;29;20038;-76
2022/07/22 09:41:09;;;;;;;4.03;2.08;;;28.20;55.10;;;;;;4813682;29;20057;-76
2022/07/22 09:43:37;;;;;;;5.20;1.98;;;28.50;54.60;;;;;;4813539;29;20516;-76
2022/07/22 09:46:04;;;;;;;12.10;3.10;;;28.90;53.90;;;;;;4812116;29;20030;-76
2022/07/22 09:48:50;;;;;;;17.80;3.67;;;29.40;53.20;;;;;;4775960;29;20089;-76
2022/07/22 09:51:35;;;;;;;9.20;2.97;;;29.50;52.30;;;;;;4813690;29;20030;-76
2022/07/22 09:54:11;;;;;;;10.25;3.30;;;29.50;51.70;;;;;;4813792;29;20126;-76
2022/07/22 09:56:39;;;;;;;7.60;2.58;;;29.50;51.40;;;;;;4812832;29;20034;-76
2022/07/22 09:59:05;;;;;;;6.68;2.88;;;29.30;51.10;;;;;;4797061;29;20042;-76
2022/07/22 10:01:37;;;;;;;8.57;2.65;;;29.10;51.10;;;;;;4796926;29;20042;-76
2022/07/22 10:04:05;;;;;;;7.00;3.40;;;29.00;51.20;;;;;;4812289;29;20421;-76
2022/07/22 10:06:35;;;;;;;9.90;3.35;;;28.90;51.30;;;;;;4797917;29;20567;-75
2022/07/22 10:09:01;;;;;;;8.07;3.33;;;28.80;51.20;;;;;;4797018;29;20067;-77
2022/07/22 10:11:27;;;;;;;8.48;2.72;;;29.00;50.90;;;;;;4797094;29;20121;-77
2022/07/22 10:13:54;;;;;;;10.38;3.22;;;29.10;50.50;;;;;;4796852;29;20113;-77
2022/07/22 10:16:20;;;;;;;7.85;3.05;;;29.40;50.20;;;;;;4797079;29;20731;-75
2022/07/22 10:18:47;;;;;;;10.30;3.35;;;29.60;49.80;;;;;;4781460;29;20038;-75
2022/07/22 10:21:14;;;;;;;7.72;3.17;;;29.70;49.30;;;;;;4812515;29;20111;-76
2022/07/22 10:24:06;;;;;;;7.97;3.88;;;29.60;49.10;;;;;;4797374;29;20047;-76
2022/07/22 10:26:51;;;;;;;9.60;3.83;;;29.40;48.80;;;;;;4811733;29;20058;-76
2022/07/22 10:29:26;;;;;;;9.30;3.17;;;29.10;49.10;;;;;;4813626;29;20037;-75
2022/07/22 10:32:14;;;;;;;11.95;4.00;;;28.80;50.00;;;;;;4810093;29;20042;-76
2022/07/22 10:34:41;;;;;;;9.52;3.38;;;28.50;49.60;;;;;;4813303;29;20195;-75
2022/07/22 10:37:34;;;;;;;5.78;3.03;;;28.20;50.10;;;;;;4813679;29;20540;-76
2022/07/22 10:40:17;;;;;;;7.43;3.63;;;27.90;50.30;;;;;;4812448;29;20038;-76
2022/07/22 10:42:58;;;;;;;8.38;3.42;;;27.50;50.70;;;;;;4813746;29;20186;-76
2022/07/22 10:45:29;;;;;;;8.15;3.20;;;27.10;51.10;;;;;;4814118;29;20480;-75
2022/07/22 10:48:00;;;;;;;11.18;4.18;;;26.80;51.70;;;;;;4812222;29;20060;-75
2022/07/22 10:50:35;;;;;;;8.63;4.35;;;26.50;52.20;;;;;;4813635;29;20034;-75
2022/07/22 10:53:05;;;;;;;9.82;3.95;;;26.20;52.90;;;;;;4813657;29;20125;-75
2022/07/22 10:55:32;;;;;;;9.95;4.13;;;26.00;53.60;;;;;;4813472;29;20056;-75
2022/07/22 10:57:58;;;;;;;14.90;4.72;;;25.70;54.20;;;;;;4816251;29;20050;-73
2022/07/22 11:00:24;;;;;;;9.82;4.47;;;25.50;54.80;;;;;;4817480;29;20058;-73
2022/07/22 11:02:50;;;;;;;15.80;6.13;;;25.30;55.40;;;;;;4817790;29;20026;-73
2022/07/22 11:05:30;;;;;;;11.73;4.28;;;25.10;56.20;;;;;;4822761;29;20557;-76
2022/07/22 11:07:56;;;;;;;9.57;2.95;;;24.80;57.10;;;;;;4809320;29;20069;-77
2022/07/22 11:10:22;;;;;;;7.00;3.70;;;24.70;57.60;;;;;;4821023;29;20473;-75
2022/07/22 11:12:49;;;;;;;9.13;4.03;;;24.60;58.50;;;;;;4801852;29;20481;-75
2022/07/22 11:15:16;;;;;;;6.30;3.50;;;24.60;59.10;;;;;;4819568;29;20038;-75
2022/07/22 11:17:42;;;;;;;8.68;3.50;;;24.50;59.30;;;;;;4817045;29;20031;-75
2022/07/22 11:20:10;;;;;;;6.95;2.97;;;24.50;59.60;;;;;;4818625;29;20036;-75
2022/07/22 11:22:37;;;;;;;8.80;3.20;;;24.50;60.00;;;;;;4816131;29;20134;-74
2022/07/22 11:25:09;;;;;;;16.10;5.38;;;24.40;60.00;;;;;;4816686;29;20502;-75
2022/07/22 11:27:35;;;;;;;8.85;4.55;;;24.30;60.50;;;;;;4817441;29;20494;-74
2022/07/22 11:30:03;;;;;;;11.38;4.38;;;24.30;61.00;;;;;;4818488;29;20034;-75
2022/07/22 11:32:31;;;;;;;7.55;4.15;;;24.30;61.70;;;;;;4816466;29;20042;-74
2022/07/22 11:34:58;;;;;;;7.25;3.30;;;24.30;62.20;;;;;;4817044;29;20046;-74
2022/07/22 11:37:26;;;;;;;10.40;4.35;;;24.20;62.60;;;;;;4820462;29;20080;-74
2022/07/22 11:39:59;;;;;;;11.25;5.03;;;24.20;62.90;;;;;;4820680;29;20034;-74
2022/07/22 11:42:26;;;;;;;9.73;4.55;;;24.20;63.40;;;;;;4819806;29;20034;-74
2022/07/22 11:44:52;;;;;;;8.13;3.63;;;24.20;63.50;;;;;;4818570;29;20570;-74
2022/07/22 11:47:18;;;;;;;9.02;3.92;;;24.20;63.80;;;;;;4814642;29;20062;-74
2022/07/22 11:49:46;;;;;;;6.00;3.05;;;24.30;64.20;;;;;;4816058;29;20473;-74
2022/07/22 11:52:12;;;;;;;7.45;3.50;;;24.30;64.30;;;;;;4815204;29;20522;-73
2022/07/22 11:54:39;;;;;;;5.82;3.60;;;24.50;64.60;;;;;;4815231;29;20073;-74
2022/07/22 11:57:06;;;;;;;6.03;3.50;;;24.60;64.80;;;;;;4798586;29;20064;-75
2022/07/22 11:59:34;;;;;;;10.25;4.45;;;24.70;64.60;;;;;;4812379;29;20062;-74
2022/07/22 12:02:01;;;;;;;8.80;3.63;;;25.00;64.80;;;;;;4797076;29;20038;-75
2022/07/22 12:04:30;;;;;;;8.18;3.30;;;25.10;64.50;;;;;;4815597;29;20041;-75
2022/07/22 12:06:58;;;;;;;9.48;3.90;;;25.30;64.20;;;;;;4815830;29;20031;-74
2022/07/22 12:09:30;;;;;;;8.20;3.38;;;25.50;63.90;;;;;;4815820;29;20035;-75
2022/07/22 12:11:57;;;;;;;8.45;3.05;;;25.70;63.60;;;;;;4798793;29;20023;-75
2022/07/22 12:14:25;;;;;;;9.30;3.35;;;25.80;63.30;;;;;;4816061;29;20233;-74
2022/07/22 12:16:58;;;;;;;7.38;3.30;;;25.80;63.20;;;;;;4799231;29;20087;-75
2022/07/22 12:19:24;;;;;;;5.30;3.17;;;25.90;63.00;;;;;;4811366;29;20170;-74
2022/07/22 12:21:59;;;;;;;4.50;2.65;;;25.90;62.90;;;;;;4815038;29;20494;-74
2022/07/22 12:24:39;;;;;;;8.02;3.65;;;25.90;62.80;;;;;;4816171;29;20512;-74
2022/07/22 12:27:11;;;;;;;7.65;3.92;;;25.90;62.70;;;;;;4802713;29;20065;-74
2022/07/22 12:29:37;;;;;;;6.38;3.15;;;26.00;62.50;;;;;;4814443;29;20082;-75
2022/07/22 12:32:14;;;;;;;5.07;2.90;;;26.10;62.30;;;;;;4812551;29;20175;-74
2022/07/22 12:34:41;;;;;;;8.38;3.50;;;26.20;62.20;;;;;;4818368;29;20054;-75
2022/07/22 12:37:34;;;;;;;12.13;3.22;;;26.20;62.00;;;;;;4801864;29;20058;-75
2022/07/22 12:40:25;;;;;;;6.93;3.22;;;26.30;61.90;;;;;;4816413;29;20201;-74
2022/07/22 12:43:01;;;;;;;7.07;3.10;;;26.30;61.80;;;;;;4818543;29;20046;-75
2022/07/22 12:45:29;;;;;;;5.82;3.15;;;26.30;61.70;;;;;;4803380;29;20045;-75
2022/07/22 12:48:01;;;;;;;7.05;3.55;;;26.20;61.60;;;;;;4818105;29;20610;-74
2022/07/22 12:50:35;;;;;;;6.85;3.13;;;26.10;61.70;;;;;;4815375;29;20477;-74
2022/07/22 12:53:09;;;;;;;7.70;3.88;;;26.10;61.80;;;;;;4815049;29;20054;-75
2022/07/22 12:55:57;;;;;;;5.60;3.28;;;25.90;61.90;;;;;;4811910;29;20046;-74